createdAt,value
2019-03-29T00:00:34.262Z,7.52
2019-03-29T00:03:01.308Z,7.52
2019-03-29T00:05:28.682Z,7.48
2019-03-29T00:07:55.749Z,7.43
2019-03-29T00:10:23.099Z,7.39
2019-03-29T00:12:50.148Z,7.27
2019-03-29T00:15:17.490Z,7.16
2019-03-29T00:17:44.861Z,7.05
2019-03-29T00:20:11.885Z,6.93
2019-03-29T00:22:39.247Z,6.84
2019-03-29T00:25:07.090Z,6.71
2019-03-29T00:27:34.589Z,6.60
2019-03-29T00:30:01.926Z,6.53
2019-03-29T00:32:29.156Z,6.47
2019-03-29T00:34:56.188Z,6.46
2019-03-29T00:37:23.228Z,6.42
2019-03-29T00:39:50.259Z,6.35
2019-03-29T00:42:17.389Z,6.27
2019-03-29T00:44:44.419Z,6.19
2019-03-29T00:47:11.469Z,6.16
2019-03-29T00:49:38.505Z,6.11
2019-03-29T00:52:05.872Z,6.09
2019-03-29T00:54:32.917Z,6.07
2019-03-29T00:57:00.270Z,6.09
2019-03-29T00:59:27.323Z,6.04
2019-03-29T01:01:54.678Z,6.06
2019-03-29T01:04:21.730Z,6.09
2019-03-29T01:06:48.794Z,6.05
2019-03-29T01:09:15.827Z,6.02
2019-03-29T01:11:42.880Z,5.97
2019-03-29T01:14:10.222Z,5.97
2019-03-29T01:16:37.505Z,5.94
2019-03-29T01:19:04.557Z,5.90
2019-03-29T01:21:31.839Z,5.86
2019-03-29T01:23:58.890Z,5.82
2019-03-29T01:26:27.049Z,5.79
2019-03-29T01:28:54.384Z,5.79
2019-03-29T01:31:21.404Z,5.79
2019-03-29T01:33:48.450Z,5.80
2019-03-29T01:36:15.806Z,5.77
2019-03-29T01:38:42.856Z,5.71
2019-03-29T01:41:09.889Z,5.69
2019-03-29T01:43:36.955Z,5.69
2019-03-29T01:46:03.979Z,5.63
2019-03-29T01:48:31.029Z,5.59
2019-03-29T01:50:58.138Z,5.54
2019-03-29T01:53:25.362Z,5.54
2019-03-29T01:55:52.698Z,5.52
2019-03-29T01:58:19.830Z,5.50
2019-03-29T02:00:47.019Z,5.44
2019-03-29T02:03:14.388Z,5.39
2019-03-29T02:05:41.427Z,5.43
2019-03-29T02:08:08.482Z,5.42
2019-03-29T02:10:35.808Z,5.40
2019-03-29T02:13:02.845Z,5.44
2019-03-29T02:15:29.889Z,5.42
2019-03-29T02:17:57.273Z,5.40
2019-03-29T02:20:25.296Z,5.38
2019-03-29T02:22:52.332Z,5.37
2019-03-29T02:25:19.377Z,5.39
2019-03-29T02:27:46.684Z,5.38
2019-03-29T02:30:14.035Z,5.38
2019-03-29T02:32:41.077Z,5.36
2019-03-29T02:35:08.466Z,5.36
2019-03-29T02:37:35.562Z,5.33
2019-03-29T02:40:02.617Z,5.36
2019-03-29T02:42:29.907Z,5.33
2019-03-29T02:44:57.243Z,5.32
2019-03-29T02:47:24.533Z,5.32
2019-03-29T02:49:52.661Z,5.28
2019-03-29T02:52:19.697Z,5.21
2019-03-29T02:54:47.210Z,5.17
2019-03-29T02:57:14.537Z,5.11
2019-03-29T02:59:41.587Z,5.04
2019-03-29T03:02:09.960Z,5.06
2019-03-29T03:04:37.014Z,5.07
2019-03-29T03:07:19.478Z,5.04
2019-03-29T03:09:46.520Z,5.03
2019-03-29T03:12:13.560Z,5.00
2019-03-29T03:14:41.926Z,4.97
2019-03-29T03:17:09.040Z,4.88
2019-03-29T03:19:36.394Z,4.85
2019-03-29T03:22:03.462Z,4.83
2019-03-29T03:24:30.474Z,4.81
2019-03-29T03:26:57.874Z,4.80
2019-03-29T03:29:24.947Z,4.76
2019-03-29T03:31:52.260Z,4.76
2019-03-29T03:34:19.311Z,4.80
2019-03-29T03:36:46.650Z,4.77
2019-03-29T03:39:30.730Z,4.69
2019-03-29T03:41:43.028Z,4.58
2019-03-29T03:44:10.131Z,4.44
2019-03-29T03:46:37.297Z,4.35
2019-03-29T03:49:04.552Z,4.29
2019-03-29T03:51:31.678Z,4.24
2019-03-29T03:53:58.789Z,4.17
2019-03-29T03:56:25.853Z,4.06
2019-03-29T03:58:53.359Z,3.97
2019-03-29T04:01:20.755Z,3.91
2019-03-29T04:03:47.863Z,3.89
2019-03-29T04:06:15.258Z,3.88
2019-03-29T04:08:42.275Z,3.93
2019-03-29T04:13:47.575Z,4.02
2019-03-29T04:16:14.985Z,3.91
2019-03-29T04:18:42.031Z,3.85
2019-03-29T04:21:09.081Z,3.75
2019-03-29T04:23:36.119Z,3.72
2019-03-29T04:26:03.484Z,3.69
2019-03-29T04:28:30.531Z,3.66
2019-03-29T04:30:57.594Z,3.64
2019-03-29T04:33:24.645Z,3.56
2019-03-29T04:35:51.751Z,3.48
2019-03-29T04:38:19.152Z,3.41
2019-03-29T04:40:46.463Z,3.37
2019-03-29T04:43:13.496Z,3.40
2019-03-29T04:45:40.569Z,3.49
2019-03-29T04:48:08.159Z,3.56
2019-03-29T04:50:35.254Z,3.63
2019-03-29T04:53:02.328Z,3.65
2019-03-29T04:55:29.715Z,3.69
2019-03-29T04:57:56.759Z,3.77
2019-03-29T05:00:23.813Z,3.86
2019-03-29T05:02:50.855Z,3.95
2019-03-29T05:05:17.913Z,4.00
2019-03-29T05:07:44.951Z,4.05
2019-03-29T05:10:20.924Z,4.05
2019-03-29T05:12:41.388Z,4.08
2019-03-29T05:15:08.454Z,4.12
2019-03-29T05:17:35.786Z,4.19
2019-03-29T05:20:03.148Z,4.25
2019-03-29T05:22:30.441Z,4.31
2019-03-29T05:24:57.476Z,4.36
2019-03-29T05:27:24.530Z,4.42
2019-03-29T05:29:51.643Z,4.48
2019-03-29T05:32:18.690Z,4.51
2019-03-29T05:34:45.730Z,4.60
2019-03-29T05:37:12.786Z,4.62
2019-03-29T05:39:40.160Z,4.69
2019-03-29T05:42:07.515Z,4.75
2019-03-29T05:44:34.560Z,4.80
2019-03-29T05:47:01.686Z,4.83
2019-03-29T05:49:28.731Z,4.89
2019-03-29T05:51:55.782Z,4.95
2019-03-29T05:54:22.821Z,5.00
2019-03-29T05:56:50.193Z,5.03
2019-03-29T05:59:17.230Z,5.00
2019-03-29T06:01:44.291Z,5.09
2019-03-29T06:04:11.329Z,5.14
2019-03-29T06:06:38.691Z,5.23
2019-03-29T06:09:05.726Z,5.30
2019-03-29T06:11:32.781Z,5.50
2019-03-29T06:13:59.817Z,5.72
2019-03-29T06:16:38.436Z,5.93
2019-03-29T06:18:55.895Z,6.06
2019-03-29T06:21:23.247Z,6.17
2019-03-29T06:23:51.352Z,6.61
2019-03-29T06:26:19.480Z,6.88
2019-03-29T06:28:46.513Z,6.90
2019-03-29T06:31:14.538Z,6.82
2019-03-29T06:33:44.399Z,6.81
2019-03-29T06:36:10.413Z,6.68
2019-03-29T06:38:37.793Z,6.72
2019-03-29T06:41:04.843Z,6.87
2019-03-29T06:43:31.879Z,7.00
2019-03-29T06:45:58.917Z,7.16
2019-03-29T06:48:25.971Z,7.21
2019-03-29T06:50:53.186Z,7.40
2019-03-29T06:53:20.444Z,7.63
2019-03-29T06:55:50.699Z,8.00
2019-03-29T06:58:18.065Z,8.94
2019-03-29T07:00:46.674Z,9.08
2019-03-29T07:03:13.935Z,9.21
2019-03-29T07:05:40.983Z,9.74
2019-03-29T07:08:08.035Z,10.99
2019-03-29T07:10:35.077Z,11.45
2019-03-29T07:13:02.418Z,11.23
2019-03-29T07:15:29.462Z,10.59
2019-03-29T07:17:56.514Z,9.87
2019-03-29T07:20:23.551Z,10.72
2019-03-29T07:22:50.899Z,11.50
2019-03-29T07:25:17.940Z,12.15
2019-03-29T07:27:51.891Z,12.65
2019-03-29T07:30:14.092Z,12.75
2019-03-29T07:32:41.158Z,12.98
2019-03-29T07:35:08.204Z,13.24
2019-03-29T07:37:36.326Z,13.39
2019-03-29T07:40:03.380Z,13.69
2019-03-29T07:42:30.437Z,13.55
2019-03-29T07:44:58.547Z,12.67
2019-03-29T07:47:25.883Z,12.67
2019-03-29T07:49:52.995Z,12.42
2019-03-29T07:52:20.047Z,12.89
2019-03-29T07:54:47.094Z,13.76
2019-03-29T07:57:14.147Z,14.06
2019-03-29T07:59:41.190Z,14.19
2019-03-29T08:02:08.249Z,14.70
2019-03-29T08:04:35.294Z,14.70
2019-03-29T08:07:02.351Z,14.88
2019-03-29T08:09:29.387Z,14.83
2019-03-29T08:11:56.774Z,14.98
2019-03-29T08:14:23.820Z,15.18
2019-03-29T08:16:50.874Z,15.14
2019-03-29T08:19:17.921Z,15.44
2019-03-29T08:21:45.271Z,14.93
2019-03-29T08:24:12.634Z,15.28
2019-03-29T08:26:40.014Z,15.75
2019-03-29T08:29:07.356Z,15.80
2019-03-29T08:31:34.393Z,15.84
2019-03-29T08:34:01.458Z,15.70
2019-03-29T08:36:28.668Z,15.88
2019-03-29T08:38:56.059Z,15.40
2019-03-29T08:41:23.398Z,15.82
2019-03-29T08:43:50.450Z,15.75
2019-03-29T08:46:18.566Z,15.64
2019-03-29T08:48:45.976Z,15.21
2019-03-29T08:51:13.022Z,15.14
2019-03-29T08:53:40.090Z,15.29
2019-03-29T08:56:07.136Z,15.63
2019-03-29T08:58:34.475Z,15.34
2019-03-29T09:01:01.521Z,15.19
2019-03-29T09:03:28.588Z,15.24
2019-03-29T09:05:55.636Z,15.12
2019-03-29T09:08:23.763Z,15.03
2019-03-29T09:10:50.807Z,13.79
2019-03-29T09:13:18.204Z,13.07
2019-03-29T09:15:45.573Z,13.64
2019-03-29T09:18:12.626Z,14.65
2019-03-29T09:20:39.951Z,15.07
2019-03-29T09:23:10.323Z,15.30
2019-03-29T09:25:36.050Z,15.88
2019-03-29T09:28:03.473Z,16.83
2019-03-29T09:30:30.807Z,17.38
2019-03-29T09:32:57.862Z,17.57
2019-03-29T09:35:25.211Z,17.49
2019-03-29T09:37:52.267Z,17.61
2019-03-29T09:40:19.312Z,17.86
2019-03-29T09:42:46.365Z,17.85
2019-03-29T09:45:13.409Z,18.21
2019-03-29T09:47:41.026Z,18.32
2019-03-29T09:50:10.322Z,18.23
2019-03-29T09:52:37.276Z,17.07
2019-03-29T09:55:04.327Z,16.87
2019-03-29T09:57:37.376Z,16.45
2019-03-29T10:00:00.534Z,17.14
2019-03-29T10:02:27.591Z,17.14
2019-03-29T10:04:54.637Z,16.06
2019-03-29T10:07:21.680Z,16.11
2019-03-29T10:09:48.817Z,16.26
2019-03-29T10:12:16.933Z,16.72
2019-03-29T10:14:43.983Z,16.55
2019-03-29T10:17:11.379Z,16.86
2019-03-29T10:19:38.436Z,17.44
2019-03-29T10:22:05.477Z,17.12
2019-03-29T10:24:32.533Z,17.18
2019-03-29T10:26:59.580Z,17.81
2019-03-29T10:29:26.632Z,19.09
2019-03-29T10:31:53.972Z,19.36
2019-03-29T10:34:21.321Z,19.80
2019-03-29T10:36:48.606Z,19.71
2019-03-29T10:39:15.658Z,18.85
2019-03-29T10:41:42.693Z,17.41
2019-03-29T10:44:09.747Z,16.17
2019-03-29T10:46:37.855Z,15.57
2019-03-29T10:49:04.915Z,16.02
2019-03-29T10:51:32.298Z,15.97
2019-03-29T10:53:59.669Z,15.75
2019-03-29T10:56:33.871Z,15.16
2019-03-29T10:58:56.424Z,14.87
2019-03-29T11:01:24.966Z,15.05
2019-03-29T11:03:52.044Z,16.07
2019-03-29T11:06:20.049Z,16.97
2019-03-29T11:08:47.186Z,16.33
2019-03-29T11:11:14.231Z,17.29
2019-03-29T11:13:41.449Z,18.72
2019-03-29T11:16:08.509Z,19.17
2019-03-29T11:18:35.868Z,19.57
2019-03-29T11:21:02.919Z,19.91
2019-03-29T11:23:30.288Z,20.59
2019-03-29T11:25:57.341Z,20.43
2019-03-29T11:28:24.671Z,19.94
2019-03-29T11:30:51.730Z,18.28
2019-03-29T11:33:19.092Z,18.76
2019-03-29T11:35:46.147Z,19.46
2019-03-29T11:38:13.192Z,20.54
2019-03-29T11:40:40.253Z,21.48
2019-03-29T11:43:07.284Z,21.46
2019-03-29T11:45:34.415Z,21.29
2019-03-29T11:48:08.130Z,21.84
2019-03-29T11:50:30.481Z,21.84
2019-03-29T11:52:57.523Z,21.56
2019-03-29T11:55:24.576Z,20.82
2019-03-29T11:57:51.691Z,20.36
2019-03-29T12:00:19.057Z,20.29
2019-03-29T12:02:46.162Z,21.04
2019-03-29T12:05:13.221Z,19.42
2019-03-29T12:07:40.253Z,18.69
2019-03-29T12:10:07.307Z,19.43
2019-03-29T12:12:34.341Z,20.87
2019-03-29T12:15:01.397Z,21.08
2019-03-29T12:17:30.150Z,20.31
2019-03-29T12:19:57.201Z,20.18
2019-03-29T12:22:24.540Z,21.19
2019-03-29T12:24:51.893Z,22.13
2019-03-29T12:27:18.939Z,22.50
2019-03-29T12:29:46.296Z,23.38
2019-03-29T12:32:13.334Z,24.41
2019-03-29T12:34:40.379Z,23.13
2019-03-29T12:37:07.766Z,22.28
2019-03-29T12:39:35.101Z,21.63
2019-03-29T12:42:04.113Z,21.73
2019-03-29T12:44:31.149Z,21.74
2019-03-29T12:46:58.197Z,21.13
2019-03-29T12:49:26.569Z,21.78
2019-03-29T12:51:53.619Z,22.28
2019-03-29T12:54:20.975Z,22.22
2019-03-29T12:56:48.345Z,21.13
2019-03-29T12:59:15.641Z,20.37
2019-03-29T13:01:43.058Z,20.08
2019-03-29T13:04:10.099Z,20.42
2019-03-29T13:06:37.462Z,21.08
2019-03-29T13:09:04.496Z,21.19
2019-03-29T13:11:32.050Z,20.87
2019-03-29T13:14:10.082Z,20.34
2019-03-29T13:16:28.799Z,19.98
2019-03-29T13:18:55.840Z,19.65
2019-03-29T13:21:23.218Z,18.96
2019-03-29T13:23:50.252Z,17.85
2019-03-29T13:26:17.300Z,17.12
2019-03-29T13:28:44.330Z,16.73
2019-03-29T13:31:11.391Z,16.35
2019-03-29T13:33:38.433Z,16.01
2019-03-29T13:36:05.486Z,15.33
2019-03-29T13:38:32.532Z,15.23
2019-03-29T13:40:59.905Z,15.07
2019-03-29T13:43:26.942Z,14.96
2019-03-29T13:45:54.033Z,14.82
2019-03-29T13:48:21.052Z,14.66
2019-03-29T13:50:48.103Z,14.48
2019-03-29T13:53:15.141Z,14.44
2019-03-29T13:55:42.203Z,14.43
2019-03-29T13:58:09.251Z,14.42
2019-03-29T14:00:36.550Z,14.45
2019-03-29T14:03:03.591Z,14.48
2019-03-29T14:05:30.639Z,14.53
2019-03-29T14:07:57.749Z,14.50
2019-03-29T14:10:24.810Z,14.40
2019-03-29T14:12:51.850Z,14.34
2019-03-29T14:15:19.186Z,14.36
2019-03-29T14:17:46.244Z,14.25
2019-03-29T14:20:13.295Z,14.20
2019-03-29T14:22:40.656Z,14.25
2019-03-29T14:25:07.697Z,14.31
2019-03-29T14:27:35.044Z,14.39
2019-03-29T14:30:04.738Z,14.51
2019-03-29T14:32:31.496Z,14.55
2019-03-29T14:34:58.975Z,14.50
2019-03-29T14:37:26.027Z,14.43
2019-03-29T14:39:54.480Z,14.32
2019-03-29T14:42:21.535Z,14.27
2019-03-29T14:44:52.798Z,14.33
2019-03-29T14:47:17.574Z,14.36
2019-03-29T14:49:44.615Z,14.47
2019-03-29T14:52:11.670Z,14.34
2019-03-29T14:54:38.711Z,14.29
2019-03-29T14:57:06.089Z,14.20
2019-03-29T14:59:33.423Z,14.12
2019-03-29T15:02:00.486Z,14.20
2019-03-29T15:04:27.518Z,14.21
2019-03-29T15:06:54.890Z,14.27
2019-03-29T15:09:22.234Z,14.26
2019-03-29T15:11:49.602Z,14.17
2019-03-29T15:14:16.649Z,14.06
2019-03-29T15:16:44.006Z,14.08
2019-03-29T15:19:11.051Z,14.04
2019-03-29T15:21:42.725Z,14.08
2019-03-29T15:24:09.698Z,14.02
2019-03-29T15:26:36.754Z,14.00
2019-03-29T15:29:03.793Z,14.02
2019-03-29T15:31:30.847Z,14.00
2019-03-29T15:33:57.895Z,14.01
2019-03-29T15:36:24.945Z,13.98
2019-03-29T15:38:51.985Z,13.94
2019-03-29T15:41:19.062Z,13.92
2019-03-29T15:43:46.447Z,13.93
2019-03-29T15:46:13.488Z,13.90
2019-03-29T15:48:40.548Z,13.93
2019-03-29T15:51:07.596Z,13.90
2019-03-29T15:53:34.648Z,13.88
2019-03-29T15:56:01.816Z,13.81
2019-03-29T15:58:28.850Z,13.74
2019-03-29T16:00:55.900Z,13.74
2019-03-29T16:03:23.030Z,13.76
2019-03-29T16:05:50.077Z,13.79
2019-03-29T16:08:18.205Z,13.73
2019-03-29T16:10:45.243Z,13.72
2019-03-29T16:13:12.299Z,13.74
2019-03-29T16:15:39.609Z,13.75
2019-03-29T16:18:06.943Z,13.69
2019-03-29T16:20:33.985Z,13.61
2019-03-29T16:23:01.357Z,13.64
2019-03-29T16:25:28.387Z,13.56
2019-03-29T16:27:55.448Z,13.44
2019-03-29T16:30:22.492Z,13.43
2019-03-29T16:32:49.968Z,13.44
2019-03-29T16:35:17.021Z,13.41
2019-03-29T16:37:56.568Z,13.35
2019-03-29T16:40:13.097Z,13.32
2019-03-29T16:42:40.152Z,13.25
2019-03-29T16:45:07.191Z,13.24
2019-03-29T16:47:35.352Z,13.15
2019-03-29T16:50:02.358Z,13.06
2019-03-29T16:52:29.690Z,12.98
2019-03-29T16:54:57.064Z,12.86
2019-03-29T16:57:24.699Z,12.83
2019-03-29T16:59:52.212Z,12.73
2019-03-29T17:02:19.328Z,12.61
2019-03-29T17:04:46.454Z,12.55
2019-03-29T17:07:13.742Z,12.53
2019-03-29T17:09:40.979Z,12.44
2019-03-29T17:12:08.183Z,12.38
2019-03-29T17:14:35.245Z,12.28
2019-03-29T17:17:02.284Z,12.15
2019-03-29T17:19:29.346Z,12.07
2019-03-29T17:21:56.394Z,12.03
2019-03-29T17:24:23.735Z,12.01
2019-03-29T17:26:54.111Z,11.92
2019-03-29T17:29:20.040Z,11.83
2019-03-29T17:31:47.116Z,11.73
2019-03-29T17:34:14.178Z,11.66
2019-03-29T17:36:41.237Z,11.57
2019-03-29T17:39:08.290Z,11.48
2019-03-29T17:41:35.603Z,11.40
2019-03-29T17:44:02.662Z,11.30
2019-03-29T17:46:29.704Z,11.24
2019-03-29T17:48:56.764Z,11.17
2019-03-29T17:51:23.811Z,11.06
2019-03-29T17:53:50.874Z,11.00
2019-03-29T17:56:18.989Z,10.98
2019-03-29T17:58:46.052Z,10.94
2019-03-29T18:01:13.101Z,10.92
2019-03-29T18:03:40.161Z,10.92
2019-03-29T18:06:07.214Z,10.89
2019-03-29T18:08:34.280Z,10.83
2019-03-29T18:11:01.328Z,10.78
2019-03-29T18:13:28.376Z,10.73
2019-03-29T18:15:55.465Z,10.72
2019-03-29T18:18:22.515Z,10.65
2019-03-29T18:20:49.887Z,10.61
2019-03-29T18:23:17.243Z,10.54
2019-03-29T18:25:44.311Z,10.47
2019-03-29T18:28:11.358Z,10.40
2019-03-29T18:30:38.426Z,10.32
2019-03-29T18:33:05.482Z,10.22
2019-03-29T18:35:32.892Z,10.14
2019-03-29T18:38:00.349Z,10.04
2019-03-29T18:40:27.578Z,9.95
2019-03-29T18:42:56.235Z,9.88
2019-03-29T18:45:23.289Z,9.80
2019-03-29T18:47:50.343Z,9.74
2019-03-29T18:50:17.394Z,9.74
2019-03-29T18:52:44.440Z,9.73
2019-03-29T18:55:14.748Z,9.73
2019-03-29T18:57:41.798Z,9.70
2019-03-29T19:00:08.877Z,9.69
2019-03-29T19:02:45.196Z,9.65
2019-03-29T19:05:12.254Z,9.61
2019-03-29T19:07:40.419Z,9.58
2019-03-29T19:10:12.497Z,9.52
2019-03-29T19:12:46.492Z,9.51
2019-03-29T19:17:57.983Z,9.52
2019-03-29T19:20:27.682Z,9.45
2019-03-29T19:22:55.796Z,9.38
2019-03-29T19:25:23.977Z,9.36
2019-03-29T19:27:52.233Z,9.36
2019-03-29T19:30:19.504Z,9.34
2019-03-29T19:32:49.769Z,9.42
2019-03-29T19:35:16.981Z,9.45
2019-03-29T19:37:52.515Z,9.49
2019-03-29T19:40:20.797Z,9.48
2019-03-29T19:42:48.132Z,9.62
2019-03-29T19:48:05.885Z,9.69
2019-03-29T19:50:32.959Z,9.69
2019-03-29T19:53:06.027Z,9.67
2019-03-29T19:55:35.245Z,9.66
2019-03-29T19:58:04.477Z,9.60
2019-03-29T20:00:31.716Z,9.58
2019-03-29T20:03:07.750Z,9.52
2019-03-29T20:05:35.930Z,9.50
2019-03-29T20:08:04.187Z,9.40
2019-03-29T20:10:32.486Z,9.38
2019-03-29T20:13:12.718Z,9.32
2019-03-29T20:15:39.990Z,9.33
2019-03-29T20:18:07.042Z,9.29
2019-03-29T20:23:28.377Z,9.26
2019-03-29T20:25:55.427Z,9.15
2019-03-29T20:28:23.679Z,9.12
2019-03-29T20:30:55.661Z,9.11
2019-03-29T20:33:23.920Z,9.09
2019-03-29T20:38:26.841Z,8.98
2019-03-29T20:43:26.870Z,9.01
2019-03-29T20:45:55.049Z,9.00
2019-03-29T20:48:39.490Z,8.92
2019-03-29T20:51:12.500Z,8.93
2019-03-29T20:53:43.744Z,8.90
2019-03-29T20:56:13.148Z,8.81
2019-03-29T20:58:42.319Z,8.77
2019-03-29T21:01:09.592Z,8.79
2019-03-29T21:03:52.263Z,8.73
2019-03-29T21:06:19.459Z,8.67
2019-03-29T21:09:00.008Z,8.58
2019-03-29T21:11:29.309Z,8.52
2019-03-29T21:13:56.211Z,8.51
2019-03-29T21:16:24.239Z,8.53
2019-03-29T21:18:51.280Z,8.54
2019-03-29T21:21:19.460Z,8.52
2019-03-29T21:23:48.350Z,8.53
2019-03-29T21:28:52.771Z,8.47
2019-03-29T21:33:59.884Z,8.41
2019-03-29T21:36:31.959Z,8.47
2019-03-29T21:39:05.951Z,8.50
2019-03-29T21:41:35.369Z,8.40
2019-03-29T21:44:02.608Z,8.36
2019-03-29T21:46:29.879Z,8.28
2019-03-29T21:49:00.178Z,8.28
2019-03-29T21:54:04.386Z,8.24
2019-03-29T22:01:50.457Z,8.05
2019-03-29T22:04:24.552Z,8.04
2019-03-29T22:06:56.234Z,7.96
2019-03-29T22:09:36.902Z,7.87
2019-03-29T22:11:56.470Z,7.84
2019-03-29T22:14:24.906Z,7.74
2019-03-29T22:16:54.150Z,7.65
2019-03-29T22:19:21.187Z,7.63
2019-03-29T22:21:48.457Z,7.59
2019-03-29T22:24:24.796Z,7.55
2019-03-29T22:26:52.990Z,7.59
2019-03-29T22:29:24.600Z,7.53
2019-03-29T22:31:57.121Z,7.59
2019-03-29T22:34:25.658Z,7.77
2019-03-29T22:39:25.125Z,7.80
2019-03-29T22:44:35.507Z,7.83
2019-03-29T22:47:05.929Z,7.76
2019-03-29T22:49:40.236Z,7.73
2019-03-29T22:52:09.450Z,7.83
2019-03-29T22:54:44.985Z,7.79
2019-03-29T22:57:12.048Z,7.71
2019-03-29T22:59:45.022Z,7.73
2019-03-29T23:04:59.609Z,7.62
2019-03-29T23:07:26.862Z,7.51
2019-03-29T23:13:01.664Z,7.45
2019-03-29T23:15:29.872Z,7.39
2019-03-29T23:20:47.507Z,7.35
2019-03-29T23:23:15.969Z,7.33
2019-03-29T23:25:55.437Z,7.34
2019-03-29T23:28:28.141Z,7.33
2019-03-29T23:33:48.237Z,7.35
2019-03-29T23:36:15.473Z,7.40
2019-03-29T23:38:45.820Z,7.41
2019-03-29T23:41:13.053Z,7.39
2019-03-29T23:46:20.984Z,7.50
2019-03-29T23:51:27.254Z,7.59
2019-03-29T23:53:55.448Z,7.63
2019-03-29T23:56:22.809Z,7.74
2019-03-29T23:58:50.979Z,7.74
